sensor_id;sensor_type;location;lat;lon;timestamp;pressure;altitude;pressure_sealevel;temperature;humidity
71976;BME280;68326;52.124;5.424;2023-07-13T00:00:38;101369.59;;;17.14;78.08
71976;BME280;68326;52.124;5.424;2023-07-13T00:03:05;101369.09;;;17.09;78.40
71976;BME280;68326;52.124;5.424;2023-07-13T00:05:32;101370.25;;;17.05;78.60
71976;BME280;68326;52.124;5.424;2023-07-13T00:07:59;101370.56;;;17.00;79.05
71976;BME280;68326;52.124;5.424;2023-07-13T00:10:25;101368.88;;;16.99;79.63
71976;BME280;68326;52.124;5.424;2023-07-13T00:12:52;101376.25;;;16.94;79.62
71976;BME280;68326;52.124;5.424;2023-07-13T00:15:27;101373.81;;;16.91;79.42
71976;BME280;68326;52.124;5.424;2023-07-13T00:17:56;101377.94;;;16.82;80.15
71976;BME280;68326;52.124;5.424;2023-07-13T00:20:24;101377.38;;;16.77;80.07
71976;BME280;68326;52.124;5.424;2023-07-13T00:22:52;101369.91;;;16.71;80.31
71976;BME280;68326;52.124;5.424;2023-07-13T00:25:21;101373.69;;;16.67;79.65
71976;BME280;68326;52.124;5.424;2023-07-13T00:27:50;101374.84;;;16.63;80.09
71976;BME280;68326;52.124;5.424;2023-07-13T00:30:17;101374.75;;;16.64;80.08
71976;BME280;68326;52.124;5.424;2023-07-13T00:32:44;101374.31;;;16.58;80.32
71976;BME280;68326;52.124;5.424;2023-07-13T00:35:13;101370.81;;;16.57;80.11
71976;BME280;68326;52.124;5.424;2023-07-13T00:37:40;101366.09;;;16.49;79.97
71976;BME280;68326;52.124;5.424;2023-07-13T00:40:09;101366.09;;;16.49;80.26
71976;BME280;68326;52.124;5.424;2023-07-13T00:42:36;101364.53;;;16.47;80.30
71976;BME280;68326;52.124;5.424;2023-07-13T00:47:31;101373.34;;;16.46;80.81
71976;BME280;68326;52.124;5.424;2023-07-13T00:49:58;101369.97;;;16.44;80.43
71976;BME280;68326;52.124;5.424;2023-07-13T00:52:25;101375.22;;;16.44;80.84
71976;BME280;68326;52.124;5.424;2023-07-13T00:54:52;101372.69;;;16.42;81.13
71976;BME280;68326;52.124;5.424;2023-07-13T00:57:20;101374.69;;;16.39;81.41
71976;BME280;68326;52.124;5.424;2023-07-13T00:59:52;101371.34;;;16.37;81.28
71976;BME280;68326;52.124;5.424;2023-07-13T01:02:20;101374.34;;;16.30;81.52
71976;BME280;68326;52.124;5.424;2023-07-13T01:04:49;101368.38;;;16.28;81.88
71976;BME280;68326;52.124;5.424;2023-07-13T01:07:16;101366.78;;;16.26;82.12
71976;BME280;68326;52.124;5.424;2023-07-13T01:09:42;101363.31;;;16.25;82.55
71976;BME280;68326;52.124;5.424;2023-07-13T01:12:10;101360.97;;;16.21;82.39
71976;BME280;68326;52.124;5.424;2023-07-13T01:14:37;101364.75;;;16.17;82.47
71976;BME280;68326;52.124;5.424;2023-07-13T01:17:04;101378.09;;;16.14;82.92
71976;BME280;68326;52.124;5.424;2023-07-13T01:19:40;101379.13;;;16.11;83.10
71976;BME280;68326;52.124;5.424;2023-07-13T01:22:13;101375.97;;;16.06;84.14
71976;BME280;68326;52.124;5.424;2023-07-13T01:24:43;101384.97;;;16.02;83.46
71976;BME280;68326;52.124;5.424;2023-07-13T01:27:12;101381.91;;;15.95;84.47
71976;BME280;68326;52.124;5.424;2023-07-13T01:29:41;101383.25;;;15.88;84.55
71976;BME280;68326;52.124;5.424;2023-07-13T01:32:11;101380.06;;;15.83;84.86
71976;BME280;68326;52.124;5.424;2023-07-13T01:34:38;101375.03;;;15.80;84.63
71976;BME280;68326;52.124;5.424;2023-07-13T01:37:10;101380.44;;;15.77;85.29
71976;BME280;68326;52.124;5.424;2023-07-13T01:39:37;101383.38;;;15.72;85.63
71976;BME280;68326;52.124;5.424;2023-07-13T01:42:04;101378.38;;;15.67;85.73
71976;BME280;68326;52.124;5.424;2023-07-13T01:44:31;101374.28;;;15.63;85.94
71976;BME280;68326;52.124;5.424;2023-07-13T01:46:58;101373.53;;;15.61;86.45
71976;BME280;68326;52.124;5.424;2023-07-13T01:49:24;101385.81;;;15.61;86.26
71976;BME280;68326;52.124;5.424;2023-07-13T01:51:51;101384.22;;;15.58;86.40
71976;BME280;68326;52.124;5.424;2023-07-13T01:54:17;101384.50;;;15.54;86.66
71976;BME280;68326;52.124;5.424;2023-07-13T01:56:44;101387.22;;;15.52;87.08
71976;BME280;68326;52.124;5.424;2023-07-13T01:59:10;101386.41;;;15.52;87.33
71976;BME280;68326;52.124;5.424;2023-07-13T02:01:37;101383.19;;;15.46;87.01
71976;BME280;68326;52.124;5.424;2023-07-13T02:04:04;101376.44;;;15.42;87.65
71976;BME280;68326;52.124;5.424;2023-07-13T02:06:30;101373.94;;;15.41;87.80
71976;BME280;68326;52.124;5.424;2023-07-13T02:08:57;101381.91;;;15.39;87.58
71976;BME280;68326;52.124;5.424;2023-07-13T02:11:24;101386.50;;;15.36;88.17
71976;BME280;68326;52.124;5.424;2023-07-13T02:13:51;101389.09;;;15.36;88.10
71976;BME280;68326;52.124;5.424;2023-07-13T02:16:18;101394.56;;;15.33;87.85
71976;BME280;68326;52.124;5.424;2023-07-13T02:18:44;101397.06;;;15.34;88.68
71976;BME280;68326;52.124;5.424;2023-07-13T02:21:11;101395.59;;;15.30;88.74
71976;BME280;68326;52.124;5.424;2023-07-13T02:23:38;101388.19;;;15.22;88.77
71976;BME280;68326;52.124;5.424;2023-07-13T02:26:04;101392.69;;;15.20;89.24
71976;BME280;68326;52.124;5.424;2023-07-13T02:28:31;101390.91;;;15.21;89.37
71976;BME280;68326;52.124;5.424;2023-07-13T02:31:07;101383.31;;;15.16;89.27
71976;BME280;68326;52.124;5.424;2023-07-13T02:33:34;101394.09;;;15.12;89.40
71976;BME280;68326;52.124;5.424;2023-07-13T02:36:01;101396.88;;;15.08;90.46
71976;BME280;68326;52.124;5.424;2023-07-13T02:38:28;101394.44;;;15.05;90.05
71976;BME280;68326;52.124;5.424;2023-07-13T02:40:54;101400.72;;;15.03;90.68
71976;BME280;68326;52.124;5.424;2023-07-13T02:43:21;101403.25;;;15.04;91.15
71976;BME280;68326;52.124;5.424;2023-07-13T02:45:48;101404.94;;;15.05;90.67
71976;BME280;68326;52.124;5.424;2023-07-13T02:48:14;101402.41;;;15.04;90.74
71976;BME280;68326;52.124;5.424;2023-07-13T02:50:41;101401.75;;;15.00;91.75
71976;BME280;68326;52.124;5.424;2023-07-13T02:53:08;101393.69;;;15.03;91.40
71976;BME280;68326;52.124;5.424;2023-07-13T02:55:34;101387.63;;;15.03;91.01
71976;BME280;68326;52.124;5.424;2023-07-13T02:58:01;101394.53;;;15.04;91.74
71976;BME280;68326;52.124;5.424;2023-07-13T03:00:28;101392.00;;;15.02;92.07
71976;BME280;68326;52.124;5.424;2023-07-13T03:02:54;101399.69;;;15.05;91.98
71976;BME280;68326;52.124;5.424;2023-07-13T03:05:24;101396.03;;;15.08;92.37
71976;BME280;68326;52.124;5.424;2023-07-13T03:07:51;101404.75;;;15.08;91.93
71976;BME280;68326;52.124;5.424;2023-07-13T03:10:17;101405.69;;;15.07;91.79
71976;BME280;68326;52.124;5.424;2023-07-13T03:12:44;101410.47;;;15.01;92.56
71976;BME280;68326;52.124;5.424;2023-07-13T03:15:11;101415.97;;;14.96;92.59
71976;BME280;68326;52.124;5.424;2023-07-13T03:17:37;101410.91;;;14.93;93.09
71976;BME280;68326;52.124;5.424;2023-07-13T03:20:04;101405.66;;;14.93;93.34
71976;BME280;68326;52.124;5.424;2023-07-13T03:22:31;101402.22;;;14.93;93.43
71976;BME280;68326;52.124;5.424;2023-07-13T03:24:58;101410.06;;;14.93;94.10
71976;BME280;68326;52.124;5.424;2023-07-13T03:27:24;101408.50;;;14.90;94.04
71976;BME280;68326;52.124;5.424;2023-07-13T03:29:51;101412.88;;;14.89;94.24
71976;BME280;68326;52.124;5.424;2023-07-13T03:32:18;101415.59;;;14.88;94.49
71976;BME280;68326;52.124;5.424;2023-07-13T03:34:44;101420.91;;;14.86;94.70
71976;BME280;68326;52.124;5.424;2023-07-13T03:37:11;101420.09;;;14.86;95.28
71976;BME280;68326;52.124;5.424;2023-07-13T03:39:37;101426.16;;;14.86;95.79
71976;BME280;68326;52.124;5.424;2023-07-13T03:42:05;101428.69;;;14.88;95.43
71976;BME280;68326;52.124;5.424;2023-07-13T03:44:32;101433.06;;;14.87;95.87
71976;BME280;68326;52.124;5.424;2023-07-13T03:46:58;101432.16;;;14.88;96.06
71976;BME280;68326;52.124;5.424;2023-07-13T03:49:25;101431.41;;;14.86;96.43
71976;BME280;68326;52.124;5.424;2023-07-13T03:51:51;101430.44;;;14.87;96.45
71976;BME280;68326;52.124;5.424;2023-07-13T03:54:19;101438.44;;;14.86;97.25
71976;BME280;68326;52.124;5.424;2023-07-13T03:56:46;101446.00;;;14.91;97.26
71976;BME280;68326;52.124;5.424;2023-07-13T03:59:12;101442.44;;;14.92;96.91
71976;BME280;68326;52.124;5.424;2023-07-13T04:01:39;101446.00;;;14.91;97.28
71976;BME280;68326;52.124;5.424;2023-07-13T04:04:06;101445.06;;;14.92;96.93
71976;BME280;68326;52.124;5.424;2023-07-13T04:06:32;101459.13;;;14.91;97.28
71976;BME280;68326;52.124;5.424;2023-07-13T04:09:00;101452.16;;;14.89;97.08
71976;BME280;68326;52.124;5.424;2023-07-13T04:11:29;101453.19;;;14.87;97.94
71976;BME280;68326;52.124;5.424;2023-07-13T04:13:58;101463.31;;;14.93;97.42
71976;BME280;68326;52.124;5.424;2023-07-13T04:16:25;101458.09;;;14.93;97.47
71976;BME280;68326;52.124;5.424;2023-07-13T04:18:52;101462.41;;;14.94;97.86
71976;BME280;68326;52.124;5.424;2023-07-13T04:21:30;101466.69;;;14.95;97.98
71976;BME280;68326;52.124;5.424;2023-07-13T04:23:57;101470.44;;;14.91;97.92
71976;BME280;68326;52.124;5.424;2023-07-13T04:26:24;101469.41;;;14.94;98.08
71976;BME280;68326;52.124;5.424;2023-07-13T04:28:51;101471.25;;;14.92;98.38
71976;BME280;68326;52.124;5.424;2023-07-13T04:31:17;101469.41;;;14.94;98.17
71976;BME280;68326;52.124;5.424;2023-07-13T04:33:44;101471.78;;;14.98;98.51
71976;BME280;68326;52.124;5.424;2023-07-13T04:36:15;101473.44;;;14.99;98.71
71976;BME280;68326;52.124;5.424;2023-07-13T04:38:42;101474.97;;;15.03;98.61
71976;BME280;68326;52.124;5.424;2023-07-13T04:41:08;101475.72;;;15.05;98.88
71976;BME280;68326;52.124;5.424;2023-07-13T04:43:35;101468.75;;;15.04;98.74
71976;BME280;68326;52.124;5.424;2023-07-13T04:46:13;101468.69;;;15.06;99.10
71976;BME280;68326;52.124;5.424;2023-07-13T04:48:41;101468.59;;;15.07;98.83
71976;BME280;68326;52.124;5.424;2023-07-13T04:51:07;101474.41;;;15.13;99.35
71976;BME280;68326;52.124;5.424;2023-07-13T04:53:34;101472.38;;;15.18;98.62
71976;BME280;68326;52.124;5.424;2023-07-13T04:56:02;101473.88;;;15.22;99.36
71976;BME280;68326;52.124;5.424;2023-07-13T04:58:30;101463.47;;;15.20;98.87
71976;BME280;68326;52.124;5.424;2023-07-13T05:01:04;101469.09;;;15.28;99.58
71976;BME280;68326;52.124;5.424;2023-07-13T05:03:32;101467.31;;;15.29;99.14
71976;BME280;68326;52.124;5.424;2023-07-13T05:06:02;101469.56;;;15.35;99.46
71976;BME280;68326;52.124;5.424;2023-07-13T05:08:29;101472.88;;;15.39;99.14
71976;BME280;68326;52.124;5.424;2023-07-13T05:10:55;101479.41;;;15.46;99.51
71976;BME280;68326;52.124;5.424;2023-07-13T05:13:22;101486.72;;;15.55;98.62
71976;BME280;68326;52.124;5.424;2023-07-13T05:16:00;101477.34;;;15.51;98.94
71976;BME280;68326;52.124;5.424;2023-07-13T05:18:27;101473.13;;;15.48;99.19
71976;BME280;68326;52.124;5.424;2023-07-13T05:20:57;101484.38;;;15.50;98.80
71976;BME280;68326;52.124;5.424;2023-07-13T05:23:24;101486.81;;;15.54;99.42
71976;BME280;68326;52.124;5.424;2023-07-13T05:25:51;101492.41;;;15.62;99.82
71976;BME280;68326;52.124;5.424;2023-07-13T05:28:17;101490.16;;;15.70;100.00
71976;BME280;68326;52.124;5.424;2023-07-13T05:30:49;101488.03;;;15.77;99.97
71976;BME280;68326;52.124;5.424;2023-07-13T05:33:16;101485.25;;;15.80;100.00
71976;BME280;68326;52.124;5.424;2023-07-13T05:35:43;101497.78;;;15.89;99.76
71976;BME280;68326;52.124;5.424;2023-07-13T05:38:09;101495.81;;;15.93;98.85
71976;BME280;68326;52.124;5.424;2023-07-13T05:40:37;101503.41;;;15.97;99.34
71976;BME280;68326;52.124;5.424;2023-07-13T05:43:04;101503.09;;;16.02;99.78
71976;BME280;68326;52.124;5.424;2023-07-13T05:45:30;101504.59;;;16.06;99.14
71976;BME280;68326;52.124;5.424;2023-07-13T05:47:57;101505.19;;;16.11;98.52
71976;BME280;68326;52.124;5.424;2023-07-13T05:50:26;101516.50;;;16.12;99.21
71976;BME280;68326;52.124;5.424;2023-07-13T05:52:53;101508.44;;;16.15;99.00
71976;BME280;68326;52.124;5.424;2023-07-13T05:55:20;101512.38;;;16.22;99.08
71976;BME280;68326;52.124;5.424;2023-07-13T05:57:47;101516.50;;;16.26;98.42
71976;BME280;68326;52.124;5.424;2023-07-13T06:00:14;101515.44;;;16.28;98.50
71976;BME280;68326;52.124;5.424;2023-07-13T06:02:41;101524.06;;;16.30;98.62
71976;BME280;68326;52.124;5.424;2023-07-13T06:05:08;101526.03;;;16.27;98.27
71976;BME280;68326;52.124;5.424;2023-07-13T06:07:35;101523.97;;;16.32;98.51
71976;BME280;68326;52.124;5.424;2023-07-13T06:10:01;101527.88;;;16.39;98.76
71976;BME280;68326;52.124;5.424;2023-07-13T06:12:28;101538.53;;;16.50;98.97
71976;BME280;68326;52.124;5.424;2023-07-13T06:14:54;101540.47;;;16.61;98.07
71976;BME280;68326;52.124;5.424;2023-07-13T06:17:21;101547.44;;;16.62;97.29
71976;BME280;68326;52.124;5.424;2023-07-13T06:19:48;101538.72;;;16.62;97.21
71976;BME280;68326;52.124;5.424;2023-07-13T06:22:14;101542.63;;;16.69;97.69
71976;BME280;68326;52.124;5.424;2023-07-13T06:24:41;101546.53;;;16.76;96.82
71976;BME280;68326;52.124;5.424;2023-07-13T06:27:07;101546.44;;;16.78;96.63
71976;BME280;68326;52.124;5.424;2023-07-13T06:29:34;101554.31;;;16.78;96.23
71976;BME280;68326;52.124;5.424;2023-07-13T06:32:01;101556.94;;;16.92;96.87
71976;BME280;68326;52.124;5.424;2023-07-13T06:34:28;101560.09;;;16.97;95.71
71976;BME280;68326;52.124;5.424;2023-07-13T06:36:54;101562.97;;;17.07;95.34
71976;BME280;68326;52.124;5.424;2023-07-13T06:39:21;101561.47;;;17.03;95.74
71976;BME280;68326;52.124;5.424;2023-07-13T06:41:47;101569.06;;;17.07;95.91
71976;BME280;68326;52.124;5.424;2023-07-13T06:44:14;101561.59;;;17.14;95.42
71976;BME280;68326;52.124;5.424;2023-07-13T06:46:40;101566.53;;;17.19;94.92
71976;BME280;68326;52.124;5.424;2023-07-13T06:49:08;101556.66;;;17.22;94.73
71976;BME280;68326;52.124;5.424;2023-07-13T06:51:35;101557.41;;;17.24;94.98
71976;BME280;68326;52.124;5.424;2023-07-13T06:54:01;101560.03;;;17.24;95.05
71976;BME280;68326;52.124;5.424;2023-07-13T06:56:28;101555.28;;;17.29;94.24
71976;BME280;68326;52.124;5.424;2023-07-13T06:58:55;101560.56;;;17.42;94.96
71976;BME280;68326;52.124;5.424;2023-07-13T07:01:21;101559.41;;;17.46;93.95
71976;BME280;68326;52.124;5.424;2023-07-13T07:03:48;101573.88;;;17.66;92.78
71976;BME280;68326;52.124;5.424;2023-07-13T07:06:19;101570.38;;;17.66;92.75
71976;BME280;68326;52.124;5.424;2023-07-13T07:08:46;101571.84;;;17.70;92.50
71976;BME280;68326;52.124;5.424;2023-07-13T07:11:16;101573.13;;;17.77;92.07
71976;BME280;68326;52.124;5.424;2023-07-13T07:13:43;101583.00;;;17.73;91.36
71976;BME280;68326;52.124;5.424;2023-07-13T07:16:10;101586.38;;;17.76;91.77
71976;BME280;68326;52.124;5.424;2023-07-13T07:18:37;101596.50;;;17.82;91.43
71976;BME280;68326;52.124;5.424;2023-07-13T07:21:04;101584.28;;;17.93;91.39
71976;BME280;68326;52.124;5.424;2023-07-13T07:23:31;101590.63;;;17.91;91.06
71976;BME280;68326;52.124;5.424;2023-07-13T07:25:57;101596.63;;;17.93;90.20
71976;BME280;68326;52.124;5.424;2023-07-13T07:28:24;101598.63;;;17.77;91.36
71976;BME280;68326;52.124;5.424;2023-07-13T07:30:56;101592.91;;;17.70;93.99
71976;BME280;68326;52.124;5.424;2023-07-13T07:33:26;101598.50;;;17.65;94.84
71976;BME280;68326;52.124;5.424;2023-07-13T07:35:53;101598.28;;;17.56;94.67
71976;BME280;68326;52.124;5.424;2023-07-13T07:38:22;101597.66;;;17.52;97.18
71976;BME280;68326;52.124;5.424;2023-07-13T07:40:52;101592.06;;;17.57;96.74
71976;BME280;68326;52.124;5.424;2023-07-13T07:43:21;101593.34;;;17.64;97.79
71976;BME280;68326;52.124;5.424;2023-07-13T07:45:48;101591.13;;;17.70;96.95
71976;BME280;68326;52.124;5.424;2023-07-13T07:48:14;101587.34;;;17.75;98.05
71976;BME280;68326;52.124;5.424;2023-07-13T07:50:41;101576.09;;;17.72;96.71
71976;BME280;68326;52.124;5.424;2023-07-13T07:53:08;101577.56;;;17.77;98.20
71976;BME280;68326;52.124;5.424;2023-07-13T07:55:36;101582.81;;;17.77;98.69
71976;BME280;68326;52.124;5.424;2023-07-13T07:58:06;101573.03;;;17.79;97.77
71976;BME280;68326;52.124;5.424;2023-07-13T08:00:53;101574.69;;;17.80;97.17
71976;BME280;68326;52.124;5.424;2023-07-13T08:03:23;101572.06;;;17.80;96.71
71976;BME280;68326;52.124;5.424;2023-07-13T08:05:53;101565.44;;;17.87;96.08
71976;BME280;68326;52.124;5.424;2023-07-13T08:08:24;101582.09;;;18.00;95.60
71976;BME280;68326;52.124;5.424;2023-07-13T08:10:50;101585.09;;;18.32;94.04
71976;BME280;68326;52.124;5.424;2023-07-13T08:13:21;101580.34;;;18.62;93.56
71976;BME280;68326;52.124;5.424;2023-07-13T08:15:47;101589.50;;;18.69;90.98
71976;BME280;68326;52.124;5.424;2023-07-13T08:18:15;101589.22;;;18.85;93.22
71976;BME280;68326;52.124;5.424;2023-07-13T08:20:42;101585.56;;;18.74;89.45
71976;BME280;68326;52.124;5.424;2023-07-13T08:23:09;101581.09;;;18.64;90.40
71976;BME280;68326;52.124;5.424;2023-07-13T08:25:36;101578.38;;;18.52;90.69
71976;BME280;68326;52.124;5.424;2023-07-13T08:28:03;101583.34;;;18.44;91.15
71976;BME280;68326;52.124;5.424;2023-07-13T08:30:30;101587.69;;;18.45;89.98
71976;BME280;68326;52.124;5.424;2023-07-13T08:32:57;101588.03;;;18.65;88.70
71976;BME280;68326;52.124;5.424;2023-07-13T08:35:23;101586.63;;;18.72;87.83
71976;BME280;68326;52.124;5.424;2023-07-13T08:37:52;101577.34;;;18.79;86.47
71976;BME280;68326;52.124;5.424;2023-07-13T08:40:19;101567.09;;;18.87;86.06
71976;BME280;68326;52.124;5.424;2023-07-13T08:43:15;101575.53;;;19.04;84.56
71976;BME280;68326;52.124;5.424;2023-07-13T08:45:48;101577.44;;;19.02;81.23
71976;BME280;68326;52.124;5.424;2023-07-13T08:53:45;101597.75;;;19.59;78.50
71976;BME280;68326;52.124;5.424;2023-07-13T08:56:18;101606.03;;;19.54;76.05
71976;BME280;68326;52.124;5.424;2023-07-13T08:58:49;101600.28;;;19.25;76.80
71976;BME280;68326;52.124;5.424;2023-07-13T09:01:24;101606.34;;;19.03;78.56
71976;BME280;68326;52.124;5.424;2023-07-13T09:09:30;101614.78;;;18.47;78.86
71976;BME280;68326;52.124;5.424;2023-07-13T09:14:57;101608.81;;;18.57;81.09
71976;BME280;68326;52.124;5.424;2023-07-13T09:17:41;101602.50;;;18.59;82.20
71976;BME280;68326;52.124;5.424;2023-07-13T09:22:41;101602.72;;;18.56;82.30
71976;BME280;68326;52.124;5.424;2023-07-13T09:25:33;101611.91;;;18.50;81.98
71976;BME280;68326;52.124;5.424;2023-07-13T09:28:14;101601.03;;;18.55;83.46
71976;BME280;68326;52.124;5.424;2023-07-13T09:31:23;101600.66;;;18.72;83.48
71976;BME280;68326;52.124;5.424;2023-07-13T09:33:50;101602.97;;;18.77;82.04
71976;BME280;68326;52.124;5.424;2023-07-13T09:36:27;101601.63;;;18.95;82.44
71976;BME280;68326;52.124;5.424;2023-07-13T09:39:21;101603.19;;;19.22;81.91
71976;BME280;68326;52.124;5.424;2023-07-13T09:42:00;101600.75;;;19.54;78.73
71976;BME280;68326;52.124;5.424;2023-07-13T09:44:30;101601.09;;;19.61;76.99
71976;BME280;68326;52.124;5.424;2023-07-13T09:46:58;101603.63;;;19.63;74.24
71976;BME280;68326;52.124;5.424;2023-07-13T09:49:33;101611.19;;;19.45;75.27
71976;BME280;68326;52.124;5.424;2023-07-13T09:52:03;101610.25;;;19.22;76.98
71976;BME280;68326;52.124;5.424;2023-07-13T09:54:33;101630.19;;;19.02;78.63
71976;BME280;68326;52.124;5.424;2023-07-13T09:57:01;101654.00;;;18.76;80.00
71976;BME280;68326;52.124;5.424;2023-07-13T09:59:37;101664.06;;;18.21;84.33
71976;BME280;68326;52.124;5.424;2023-07-13T10:02:33;101639.91;;;17.89;87.51
71976;BME280;68326;52.124;5.424;2023-07-13T10:05:03;101644.13;;;17.79;88.24
71976;BME280;68326;52.124;5.424;2023-07-13T10:07:31;101646.63;;;17.80;90.00
71976;BME280;68326;52.124;5.424;2023-07-13T10:10:00;101653.94;;;18.15;91.91
71976;BME280;68326;52.124;5.424;2023-07-13T10:12:29;101639.00;;;18.52;87.11
71976;BME280;68326;52.124;5.424;2023-07-13T10:14:59;101635.97;;;18.70;87.93
71976;BME280;68326;52.124;5.424;2023-07-13T10:17:46;101641.25;;;18.83;89.14
71976;BME280;68326;52.124;5.424;2023-07-13T10:20:14;101652.03;;;19.04;88.09
71976;BME280;68326;52.124;5.424;2023-07-13T10:23:02;101658.28;;;19.03;88.72
71976;BME280;68326;52.124;5.424;2023-07-13T10:25:33;101655.75;;;19.01;85.97
71976;BME280;68326;52.124;5.424;2023-07-13T10:28:31;101652.41;;;18.86;86.00
71976;BME280;68326;52.124;5.424;2023-07-13T10:31:01;101652.38;;;18.99;87.09
71976;BME280;68326;52.124;5.424;2023-07-13T10:33:29;101649.44;;;19.50;nan
71976;BME280;68326;52.124;5.424;2023-07-13T10:38:47;101647.66;;;20.09;83.92
71976;BME280;68326;52.124;5.424;2023-07-13T10:41:21;101651.38;;;19.84;84.45
71976;BME280;68326;52.124;5.424;2023-07-13T10:43:52;101663.59;;;19.73;83.86
71976;BME280;68326;52.124;5.424;2023-07-13T10:46:20;101654.28;;;19.56;82.84
71976;BME280;68326;52.124;5.424;2023-07-13T10:48:52;101661.19;;;19.46;82.59
71976;BME280;68326;52.124;5.424;2023-07-13T10:51:21;101660.34;;;19.34;81.03
71976;BME280;68326;52.124;5.424;2023-07-13T10:54:12;101666.56;;;19.69;79.55
71976;BME280;68326;52.124;5.424;2023-07-13T10:56:46;101657.25;;;19.99;80.05
71976;BME280;68326;52.124;5.424;2023-07-13T10:59:27;101646.94;;;20.41;78.53
71976;BME280;68326;52.124;5.424;2023-07-13T11:01:57;101658.22;;;20.54;74.63
71976;BME280;68326;52.124;5.424;2023-07-13T11:04:26;101664.84;;;20.71;75.39
71976;BME280;68326;52.124;5.424;2023-07-13T11:06:57;101660.78;;;20.99;71.12
71976;BME280;68326;52.124;5.424;2023-07-13T11:09:38;101674.47;;;21.15;68.59
71976;BME280;68326;52.124;5.424;2023-07-13T11:25:27;101673.63;;;20.60;70.10
71976;BME280;68326;52.124;5.424;2023-07-13T11:36:18;101658.59;;;20.61;71.08
71976;BME280;68326;52.124;5.424;2023-07-13T11:39:19;101658.25;;;20.43;71.67
71976;BME280;68326;52.124;5.424;2023-07-13T11:41:53;101666.53;;;20.15;71.75
71976;BME280;68326;52.124;5.424;2023-07-13T11:44:24;101682.13;;;20.07;73.76
71976;BME280;68326;52.124;5.424;2023-07-13T11:46:54;101691.88;;;20.18;75.39
71976;BME280;68326;52.124;5.424;2023-07-13T11:49:23;101686.13;;;20.13;73.77
71976;BME280;68326;52.124;5.424;2023-07-13T11:51:51;101697.84;;;19.98;73.70
71976;BME280;68326;52.124;5.424;2023-07-13T11:54:25;101694.72;;;19.81;74.48
71976;BME280;68326;52.124;5.424;2023-07-13T11:56:59;101696.56;;;19.68;75.56
71976;BME280;68326;52.124;5.424;2023-07-13T11:59:30;101696.91;;;19.63;76.74
71976;BME280;68326;52.124;5.424;2023-07-13T12:01:57;101691.69;;;19.50;78.34
71976;BME280;68326;52.124;5.424;2023-07-13T12:04:32;101704.16;;;19.48;77.87
71976;BME280;68326;52.124;5.424;2023-07-13T12:07:14;101700.47;;;19.51;80.05
71976;BME280;68326;52.124;5.424;2023-07-13T12:09:41;101694.94;;;19.54;80.73
71976;BME280;68326;52.124;5.424;2023-07-13T12:12:18;101692.50;;;20.10;80.92
71976;BME280;68326;52.124;5.424;2023-07-13T12:14:45;101690.19;;;20.40;78.94
71976;BME280;68326;52.124;5.424;2023-07-13T12:17:19;101695.00;;;20.34;77.14
71976;BME280;68326;52.124;5.424;2023-07-13T12:19:48;101691.50;;;20.11;79.99
71976;BME280;68326;52.124;5.424;2023-07-13T12:22:16;101694.16;;;20.11;81.66
71976;BME280;68326;52.124;5.424;2023-07-13T12:24:44;101698.81;;;20.08;79.84
71976;BME280;68326;52.124;5.424;2023-07-13T12:27:24;101697.97;;;19.96;79.76
71976;BME280;68326;52.124;5.424;2023-07-13T12:29:58;101694.25;;;19.99;82.50
71976;BME280;68326;52.124;5.424;2023-07-13T12:32:26;101690.41;;;20.03;83.34
71976;BME280;68326;52.124;5.424;2023-07-13T12:35:15;101696.06;;;20.21;81.95
71976;BME280;68326;52.124;5.424;2023-07-13T12:37:43;101694.03;;;20.24;78.68
71976;BME280;68326;52.124;5.424;2023-07-13T12:40:16;101689.84;;;20.55;75.92
71976;BME280;68326;52.124;5.424;2023-07-13T12:42:47;101682.28;;;20.62;76.14
71976;BME280;68326;52.124;5.424;2023-07-13T12:45:24;101682.25;;;20.85;75.74
71976;BME280;68326;52.124;5.424;2023-07-13T12:47:57;101683.50;;;21.13;75.00
71976;BME280;68326;52.124;5.424;2023-07-13T12:50:41;101682.72;;;21.22;75.51
71976;BME280;68326;52.124;5.424;2023-07-13T12:53:17;101688.56;;;21.05;71.72
71976;BME280;68326;52.124;5.424;2023-07-13T12:55:50;101689.63;;;20.70;70.74
71976;BME280;68326;52.124;5.424;2023-07-13T12:58:40;101693.34;;;20.79;70.50
71976;BME280;68326;52.124;5.424;2023-07-13T13:01:11;101690.38;;;20.93;69.34
71976;BME280;68326;52.124;5.424;2023-07-13T13:03:44;101673.84;;;21.23;68.04
71976;BME280;68326;52.124;5.424;2023-07-13T13:08:41;101693.19;;;20.91;68.77
71976;BME280;68326;52.124;5.424;2023-07-13T13:11:10;101692.94;;;20.72;69.55
71976;BME280;68326;52.124;5.424;2023-07-13T13:13:36;101695.41;;;20.64;71.16
71976;BME280;68326;52.124;5.424;2023-07-13T13:16:22;101690.44;;;20.82;70.71
71976;BME280;68326;52.124;5.424;2023-07-13T13:18:52;101687.41;;;20.97;69.03
71976;BME280;68326;52.124;5.424;2023-07-13T13:21:20;101691.59;;;20.89;66.63
71976;BME280;68326;52.124;5.424;2023-07-13T13:23:47;101692.09;;;20.94;67.33
71976;BME280;68326;52.124;5.424;2023-07-13T13:26:14;101690.28;;;20.94;66.60
71976;BME280;68326;52.124;5.424;2023-07-13T13:28:45;101690.75;;;21.00;66.10
71976;BME280;68326;52.124;5.424;2023-07-13T13:31:12;101693.03;;;20.93;67.26
71976;BME280;68326;52.124;5.424;2023-07-13T13:33:41;101704.72;;;20.90;67.06
71976;BME280;68326;52.124;5.424;2023-07-13T13:38:40;101694.69;;;20.62;67.29
71976;BME280;68326;52.124;5.424;2023-07-13T13:41:11;101696.72;;;20.58;68.91
71976;BME280;68326;52.124;5.424;2023-07-13T13:43:40;101699.19;;;20.48;66.95
71976;BME280;68326;52.124;5.424;2023-07-13T13:46:24;101705.47;;;20.47;67.79
71976;BME280;68326;52.124;5.424;2023-07-13T13:48:56;101697.78;;;20.55;64.86
71976;BME280;68326;52.124;5.424;2023-07-13T13:51:23;101702.25;;;20.66;64.37